createdAt,value
2023-07-02T00:01:05.202Z,101115.69
2023-07-02T00:04:10.499Z,101116.38
2023-07-02T00:07:02.581Z,101116.44
2023-07-02T00:09:36.596Z,101117.09
2023-07-02T00:12:17.154Z,101113.81
2023-07-02T00:18:02.367Z,101111.53
2023-07-02T00:26:33.018Z,101110.72
2023-07-02T00:29:11.807Z,101110.81
2023-07-02T00:32:04.280Z,101110.81
2023-07-02T00:34:34.307Z,101100.47
2023-07-02T00:37:04.474Z,101096.84
2023-07-02T00:39:34.779Z,101100.03
2023-07-02T00:42:07.274Z,101100.41
2023-07-02T00:48:06.726Z,101092.88
2023-07-02T00:51:08.746Z,101092.59
2023-07-02T00:56:34.818Z,101083.69
2023-07-02T01:06:15.353Z,101069.84
2023-07-02T01:08:40.171Z,101068.88
2023-07-02T01:11:13.938Z,101073.00
2023-07-02T01:18:08.941Z,101070.28
2023-07-02T01:21:08.424Z,101070.03
2023-07-02T01:24:16.850Z,101071.38
2023-07-02T01:30:12.228Z,101075.28
2023-07-02T01:33:09.968Z,101081.38
2023-07-02T01:36:11.796Z,101092.47
2023-07-02T01:39:11.476Z,101075.56
2023-07-02T01:41:47.832Z,101076.91
2023-07-02T01:47:12.811Z,101088.03
2023-07-02T01:50:13.191Z,101083.66
2023-07-02T01:52:47.415Z,101083.34
2023-07-02T01:55:15.957Z,101071.84
2023-07-02T01:58:38.514Z,101066.41
2023-07-02T02:01:12.715Z,101072.50
2023-07-02T02:03:42.096Z,101070.78
2023-07-02T02:06:13.726Z,101066.88
2023-07-02T02:08:42.555Z,101071.09
2023-07-02T02:11:10.877Z,101079.44
2023-07-02T02:13:48.398Z,101080.44
2023-07-02T02:16:42.429Z,101077.09
2023-07-02T02:19:15.093Z,101069.13
2023-07-02T02:21:44.450Z,101068.44
2023-07-02T02:24:14.300Z,101066.75
2023-07-02T02:26:48.466Z,101067.50
2023-07-02T02:29:19.893Z,101077.19
2023-07-02T02:31:48.605Z,101075.88
2023-07-02T02:34:17.167Z,101082.53
2023-07-02T02:36:45.845Z,101078.50
2023-07-02T02:39:17.085Z,101081.75
2023-07-02T02:41:45.739Z,101069.75
2023-07-02T02:44:14.467Z,101064.00
2023-07-02T02:46:45.961Z,101083.38
2023-07-02T02:49:16.157Z,101079.66
2023-07-02T02:51:47.728Z,101079.72
2023-07-02T02:54:17.371Z,101077.53
2023-07-02T02:56:48.826Z,101079.06
2023-07-02T02:59:19.647Z,101072.53
2023-07-02T03:01:50.024Z,101085.94
2023-07-02T03:09:48.129Z,101092.47
2023-07-02T03:12:18.269Z,101088.78
2023-07-02T03:14:53.699Z,101091.50
2023-07-02T03:17:54.367Z,101087.97
2023-07-02T03:20:49.028Z,101090.03
2023-07-02T03:26:18.718Z,101091.59
2023-07-02T03:28:50.040Z,101094.81
2023-07-02T03:34:50.287Z,101099.91
2023-07-02T03:37:48.989Z,101103.63
2023-07-02T03:42:55.687Z,101100.56
2023-07-02T03:45:51.689Z,101101.06
2023-07-02T03:51:51.351Z,101105.63
2023-07-02T03:56:57.562Z,101107.97
2023-07-02T03:59:57.978Z,101110.19
2023-07-02T04:02:54.288Z,101111.84
2023-07-02T04:05:54.429Z,101106.41
2023-07-02T04:08:24.044Z,101126.34
2023-07-02T04:10:55.660Z,101116.00
2023-07-02T04:13:24.292Z,101118.88
2023-07-02T04:15:52.806Z,101121.56
2023-07-02T04:18:24.441Z,101123.44
2023-07-02T04:20:57.677Z,101121.72
2023-07-02T04:23:26.303Z,101120.22
2023-07-02T04:26:03.281Z,101121.88
2023-07-02T04:29:25.751Z,101126.63
2023-07-02T04:31:57.521Z,101126.56
2023-07-02T04:34:26.677Z,101128.06
2023-07-02T04:36:55.877Z,101127.56
2023-07-02T04:41:55.744Z,101124.50
2023-07-02T04:44:31.139Z,101129.38
2023-07-02T04:49:57.761Z,101139.97
2023-07-02T04:52:26.262Z,101129.50
2023-07-02T04:54:57.999Z,101136.06
2023-07-02T04:57:26.292Z,101141.63
2023-07-02T04:59:56.622Z,101141.13
2023-07-02T05:02:28.116Z,101144.97
2023-07-02T05:05:37.401Z,101139.91
2023-07-02T05:07:57.931Z,101149.31
2023-07-02T05:10:28.062Z,101151.66
2023-07-02T05:15:57.757Z,101167.13
2023-07-02T05:18:29.166Z,101166.88
2023-07-02T05:20:58.046Z,101160.25
2023-07-02T05:25:59.882Z,101182.63
2023-07-02T05:28:29.470Z,101183.63
2023-07-02T05:31:14.444Z,101177.00
2023-07-02T05:34:00.207Z,101185.34
2023-07-02T05:39:11.045Z,101178.09
2023-07-02T05:42:00.140Z,101175.25
2023-07-02T05:44:31.491Z,101167.47
2023-07-02T05:47:00.007Z,101170.16
2023-07-02T05:49:31.721Z,101171.03
2023-07-02T05:54:43.672Z,101157.28
2023-07-02T05:57:32.651Z,101165.53
2023-07-02T06:00:38.237Z,101157.91
2023-07-02T06:05:43.536Z,101159.38
2023-07-02T06:09:34.667Z,101165.75
2023-07-02T06:15:31.343Z,101168.50
2023-07-02T06:20:34.067Z,101155.78
2023-07-02T06:30:36.719Z,101148.44
2023-07-02T06:33:40.659Z,101146.75
2023-07-02T06:36:41.218Z,101148.59
2023-07-02T06:39:34.048Z,101147.88
2023-07-02T06:42:35.149Z,101145.50
2023-07-02T06:45:33.232Z,101147.25
2023-07-02T06:54:34.807Z,101138.94
2023-07-02T06:57:06.633Z,101135.69
2023-07-02T06:59:34.996Z,101131.44
2023-07-02T07:02:37.111Z,101147.34
2023-07-02T07:05:35.124Z,101138.69
2023-07-02T07:08:06.613Z,101137.69
2023-07-02T07:16:35.208Z,101143.25
2023-07-02T07:19:07.240Z,101140.28
2023-07-02T07:24:38.665Z,101137.78
2023-07-02T07:27:35.530Z,101140.78
2023-07-02T07:30:07.867Z,101145.31
2023-07-02T07:35:07.442Z,101145.91
2023-07-02T07:37:36.043Z,101136.00
2023-07-02T07:40:09.100Z,101137.88
2023-07-02T07:42:37.368Z,101138.59
2023-07-02T07:48:38.354Z,101133.97
2023-07-02T07:51:37.995Z,101135.94
2023-07-02T07:57:40.038Z,101133.44
2023-07-02T08:03:23.174Z,101124.41
2023-07-02T08:06:40.575Z,101120.00
2023-07-02T08:11:44.108Z,101113.94
2023-07-02T08:14:13.037Z,101113.06
2023-07-02T08:16:41.321Z,101122.84
2023-07-02T08:19:41.645Z,101112.22
2023-07-02T08:24:45.417Z,101104.44
2023-07-02T08:30:40.933Z,101122.16
2023-07-02T08:33:39.926Z,101117.59
2023-07-02T08:36:11.492Z,101110.66
2023-07-02T08:38:43.825Z,101117.19
2023-07-02T08:45:12.429Z,101113.38
2023-07-02T08:47:40.734Z,101112.66
2023-07-02T08:50:11.654Z,101116.22
2023-07-02T08:52:44.895Z,101116.22
2023-07-02T08:55:13.370Z,101112.53
2023-07-02T09:00:42.604Z,101107.28
2023-07-02T09:03:17.737Z,101111.69
2023-07-02T09:06:14.411Z,101109.81
2023-07-02T09:08:43.015Z,101103.91
2023-07-02T09:11:13.774Z,101108.28
2023-07-02T09:14:14.261Z,101106.44
2023-07-02T09:16:43.393Z,101104.59
2023-07-02T09:19:14.772Z,101106.00
2023-07-02T09:27:13.194Z,101113.03
2023-07-02T09:29:44.699Z,101107.94
2023-07-02T09:32:13.170Z,101107.25
2023-07-02T09:34:44.630Z,101111.75
2023-07-02T09:37:14.122Z,101111.63
2023-07-02T09:39:45.863Z,101098.91
2023-07-02T09:42:15.797Z,101097.91
2023-07-02T09:44:45.161Z,101097.66
2023-07-02T09:47:15.196Z,101098.34
2023-07-02T09:50:16.780Z,101096.34
2023-07-02T09:52:48.077Z,101092.97
2023-07-02T09:55:17.585Z,101097.50
2023-07-02T09:57:46.852Z,101097.66
2023-07-02T10:00:17.192Z,101095.22
2023-07-02T10:05:46.449Z,101096.06
2023-07-02T10:08:19.019Z,101096.34
2023-07-02T10:10:47.864Z,101100.00
2023-07-02T10:13:17.197Z,101099.03
2023-07-02T10:15:45.517Z,101098.34
2023-07-02T10:18:17.054Z,101093.09
2023-07-02T10:20:45.452Z,101090.53
2023-07-02T10:23:16.628Z,101094.06
2023-07-02T10:25:46.255Z,101100.56
2023-07-02T10:28:26.244Z,101109.75
2023-07-02T10:31:17.860Z,101105.06
2023-07-02T10:33:47.228Z,101105.06
2023-07-02T10:38:48.056Z,101117.53
2023-07-02T10:41:30.331Z,101113.00
2023-07-02T10:44:30.473Z,101120.63
2023-07-02T10:47:17.292Z,101116.38
2023-07-02T10:49:47.842Z,101100.25
2023-07-02T10:52:19.153Z,101101.09
2023-07-02T10:54:49.400Z,101092.63
2023-07-02T10:57:24.406Z,101090.97
2023-07-02T11:02:49.676Z,101087.59
2023-07-02T11:05:18.230Z,101082.19
2023-07-02T11:07:48.087Z,101080.06
2023-07-02T11:10:22.721Z,101081.88
2023-07-02T11:12:51.090Z,101082.75
2023-07-02T11:15:20.372Z,101086.00
2023-07-02T11:17:48.857Z,101089.94
2023-07-02T11:20:19.171Z,101090.63
2023-07-02T11:22:50.556Z,101098.25
2023-07-02T11:25:22.145Z,101103.31
2023-07-02T11:27:50.612Z,101101.84
2023-07-02T11:30:19.234Z,101102.69
2023-07-02T11:33:26.431Z,101099.31
2023-07-02T11:35:51.607Z,101100.69
2023-07-02T11:38:20.041Z,101100.97
2023-07-02T11:40:51.516Z,101104.78
2023-07-02T11:43:20.891Z,101098.44
2023-07-02T11:45:52.111Z,101098.56
2023-07-02T11:48:20.700Z,101103.47
2023-07-02T11:50:49.003Z,101098.53
2023-07-02T11:53:21.095Z,101090.47
2023-07-02T11:55:52.794Z,101092.19
2023-07-02T11:58:21.306Z,101102.03
2023-07-02T12:00:52.499Z,101103.88
2023-07-02T12:03:20.593Z,101099.06
2023-07-02T12:05:52.369Z,101098.94
2023-07-02T12:08:20.977Z,101100.03
2023-07-02T12:10:52.644Z,101093.09
2023-07-02T12:13:22.906Z,101096.06
2023-07-02T12:15:53.192Z,101089.16
2023-07-02T12:18:21.493Z,101085.72
2023-07-02T12:20:52.772Z,101097.31
2023-07-02T12:23:21.094Z,101105.50
2023-07-02T12:25:52.688Z,101107.59
2023-07-02T12:28:24.046Z,101116.75
2023-07-02T12:30:52.522Z,101119.72
2023-07-02T12:33:24.009Z,101119.84
2023-07-02T12:35:52.785Z,101119.72
2023-07-02T12:38:24.243Z,101132.41
2023-07-02T12:40:52.775Z,101138.88
2023-07-02T12:43:24.221Z,101140.84
2023-07-02T12:45:53.440Z,101137.44
2023-07-02T12:48:24.610Z,101140.41
2023-07-02T12:54:22.779Z,101142.59
2023-07-02T12:56:51.317Z,101135.16
2023-07-02T12:59:23.332Z,101144.13
2023-07-02T13:01:54.761Z,101146.28
2023-07-02T13:04:23.317Z,101144.19
2023-07-02T13:06:53.041Z,101145.53
2023-07-02T13:09:24.385Z,101147.25
2023-07-02T13:11:53.077Z,101146.91
2023-07-02T13:14:24.357Z,101153.66
2023-07-02T13:16:54.080Z,101143.19
2023-07-02T13:19:25.408Z,101151.50
2023-07-02T13:21:53.703Z,101151.63
2023-07-02T13:24:25.225Z,101157.13
2023-07-02T13:26:56.811Z,101154.59
2023-07-02T13:29:25.086Z,101161.66
2023-07-02T13:31:56.371Z,101157.84
2023-07-02T13:34:24.850Z,101169.44
2023-07-02T13:36:56.214Z,101171.72
2023-07-02T13:39:24.608Z,101168.00
2023-07-02T13:41:56.039Z,101175.25
2023-07-02T13:44:24.490Z,101175.69
2023-07-02T13:46:59.731Z,101180.69
2023-07-02T13:49:31.145Z,101187.47
2023-07-02T13:52:34.174Z,101193.03
2023-07-02T13:54:58.911Z,101192.06
2023-07-02T13:57:27.303Z,101181.63
2023-07-02T13:59:55.622Z,101186.72
2023-07-02T14:02:27.347Z,101176.84
2023-07-02T14:04:56.564Z,101177.97
2023-07-02T14:07:26.903Z,101180.78
2023-07-02T14:09:57.384Z,101186.44
2023-07-02T14:12:25.747Z,101176.53
2023-07-02T14:14:54.036Z,101166.66
2023-07-02T14:17:24.518Z,101180.09
2023-07-02T14:19:54.532Z,101186.03
2023-07-02T14:22:22.922Z,101179.53
2023-07-02T14:24:54.288Z,101176.72
2023-07-02T14:27:23.287Z,101178.44
2023-07-02T14:29:51.793Z,101166.69
2023-07-02T14:32:20.525Z,101168.25
2023-07-02T14:34:48.872Z,101175.06
2023-07-02T14:37:17.237Z,101180.28
2023-07-02T14:39:57.227Z,101182.00
2023-07-02T14:42:29.947Z,101189.22
2023-07-02T14:44:58.414Z,101189.94
2023-07-02T14:47:26.742Z,101181.47
2023-07-02T14:49:55.047Z,101186.31
2023-07-02T14:52:23.386Z,101187.59
2023-07-02T14:54:51.903Z,101181.66
2023-07-02T14:57:21.096Z,101186.47
2023-07-02T14:59:51.488Z,101193.00
2023-07-02T15:02:25.602Z,101203.19
2023-07-02T15:04:56.629Z,101200.09
2023-07-02T15:07:24.629Z,101199.69
2023-07-02T15:09:53.081Z,101202.28
2023-07-02T15:12:23.272Z,101198.59
2023-07-02T15:14:57.232Z,101213.72
2023-07-02T15:17:26.116Z,101212.75
2023-07-02T15:19:54.530Z,101212.47
2023-07-02T15:22:22.896Z,101222.50
2023-07-02T15:24:56.807Z,101221.78
2023-07-02T15:27:28.872Z,101223.47
2023-07-02T15:29:57.308Z,101220.91
2023-07-02T15:32:26.381Z,101214.69
2023-07-02T15:34:58.387Z,101216.50
2023-07-02T15:37:29.919Z,101216.63
2023-07-02T15:39:59.064Z,101204.56
2023-07-02T15:42:31.538Z,101213.19
2023-07-02T15:45:00.147Z,101211.75
2023-07-02T15:47:29.926Z,101211.84
2023-07-02T15:49:59.923Z,101218.88
2023-07-02T15:52:28.568Z,101210.91
2023-07-02T15:54:56.981Z,101222.50
2023-07-02T15:57:25.396Z,101229.13
2023-07-02T15:59:59.862Z,101228.13
2023-07-02T16:02:28.236Z,101233.34
2023-07-02T16:04:57.712Z,101238.63
2023-07-02T16:07:26.243Z,101238.50
2023-07-02T16:09:54.699Z,101224.16
2023-07-02T16:12:23.428Z,101239.88
2023-07-02T16:14:51.740Z,101228.25
2023-07-02T16:17:20.308Z,101228.41
2023-07-02T16:19:49.178Z,101227.78
2023-07-02T16:22:18.062Z,101225.34
2023-07-02T16:24:46.777Z,101220.16
2023-07-02T16:27:15.855Z,101208.78
2023-07-02T16:29:46.306Z,101217.97
2023-07-02T16:32:37.671Z,101214.66
2023-07-02T16:35:06.311Z,101213.72
2023-07-02T16:37:34.918Z,101225.44
2023-07-02T16:40:05.115Z,101223.97
2023-07-02T16:45:07.822Z,101214.34
2023-07-02T16:47:36.739Z,101223.03
2023-07-02T16:50:05.540Z,101231.34
2023-07-02T16:53:07.547Z,101232.72
2023-07-02T16:56:01.803Z,101234.94
2023-07-02T16:58:34.410Z,101233.88
2023-07-02T17:01:35.031Z,101221.91
2023-07-02T17:04:06.473Z,101220.88
2023-07-02T17:06:34.826Z,101228.78
2023-07-02T17:10:05.250Z,101230.44
2023-07-02T17:12:36.254Z,101223.13
2023-07-02T17:15:04.802Z,101232.13
2023-07-02T17:17:35.801Z,101243.59
2023-07-02T17:20:06.351Z,101241.56
2023-07-02T17:22:35.207Z,101239.34
2023-07-02T17:25:07.626Z,101235.72
2023-07-02T17:27:37.185Z,101246.56
2023-07-02T17:30:08.792Z,101245.63
2023-07-02T17:32:37.207Z,101259.81
2023-07-02T17:35:06.398Z,101243.22
2023-07-02T17:37:38.011Z,101237.78
2023-07-02T17:40:08.191Z,101251.28
2023-07-02T17:42:37.466Z,101249.25
2023-07-02T17:45:06.295Z,101249.63
2023-07-02T17:47:38.881Z,101246.19
2023-07-02T17:50:07.737Z,101243.19
2023-07-02T17:52:39.747Z,101247.97
2023-07-02T17:55:08.519Z,101242.06
2023-07-02T17:57:40.136Z,101258.28
2023-07-02T18:00:09.954Z,101256.25
2023-07-02T18:02:42.498Z,101265.19
2023-07-02T18:05:12.462Z,101262.66
2023-07-02T18:07:40.859Z,101263.31
2023-07-02T18:10:09.459Z,101260.63
2023-07-02T18:12:38.024Z,101259.78
2023-07-02T18:15:10.064Z,101266.03
2023-07-02T18:17:38.949Z,101267.50
2023-07-02T18:20:11.145Z,101261.44
2023-07-02T18:22:39.511Z,101260.16
2023-07-02T18:25:10.486Z,101256.94
2023-07-02T18:27:38.902Z,101253.75
2023-07-02T18:30:10.965Z,101251.38
2023-07-02T18:32:39.405Z,101256.00
2023-07-02T18:35:11.264Z,101255.81
2023-07-02T18:37:39.530Z,101246.44
2023-07-02T18:40:11.399Z,101244.59
2023-07-02T18:42:42.455Z,101254.59
2023-07-02T18:45:11.006Z,101250.03
2023-07-02T18:47:40.137Z,101251.53
2023-07-02T18:50:11.892Z,101255.59
2023-07-02T18:52:42.609Z,101262.72
2023-07-02T18:55:11.941Z,101263.53
2023-07-02T19:00:12.789Z,101261.84
2023-07-02T19:02:41.842Z,101262.38
2023-07-02T19:05:12.061Z,101267.09
2023-07-02T19:07:43.143Z,101258.31
2023-07-02T19:10:12.987Z,101259.31
2023-07-02T19:12:43.736Z,101258.97
2023-07-02T19:15:12.724Z,101258.31
2023-07-02T19:17:45.428Z,101259.50
2023-07-02T19:23:14.913Z,101254.03
2023-07-02T19:25:43.371Z,101265.53
2023-07-02T19:28:15.686Z,101257.41
2023-07-02T19:30:43.975Z,101259.28
2023-07-02T19:33:12.559Z,101251.31
2023-07-02T19:35:43.500Z,101255.22
2023-07-02T19:38:15.489Z,101255.22
2023-07-02T19:40:43.755Z,101250.97
2023-07-02T19:43:13.954Z,101253.97
2023-07-02T19:45:45.213Z,101249.25
2023-07-02T19:48:33.731Z,101240.06
2023-07-02T19:51:15.988Z,101251.91
2023-07-02T19:53:44.519Z,101246.31
2023-07-02T19:56:15.792Z,101246.09
2023-07-02T19:58:47.959Z,101241.16
2023-07-02T20:03:51.867Z,101235.66
2023-07-02T20:06:52.860Z,101236.63
2023-07-02T20:09:47.045Z,101224.00
2023-07-02T20:21:45.668Z,101232.63
2023-07-02T20:24:17.025Z,101221.03
2023-07-02T20:26:51.051Z,101220.63
2023-07-02T20:29:45.883Z,101216.03
2023-07-02T20:32:47.030Z,101224.56
2023-07-02T20:35:17.834Z,101217.25
2023-07-02T20:37:51.816Z,101219.31
2023-07-02T20:43:49.216Z,101202.78
2023-07-02T20:46:22.848Z,101210.44
2023-07-02T20:48:51.749Z,101210.00
2023-07-02T20:54:49.080Z,101200.16
2023-07-02T20:57:20.748Z,101200.28
2023-07-02T21:10:49.894Z,101182.81
2023-07-02T21:19:22.841Z,101187.81
2023-07-02T21:21:52.987Z,101188.72
2023-07-02T21:27:50.760Z,101173.53
2023-07-02T21:30:25.291Z,101170.78
2023-07-02T21:32:53.808Z,101165.72
2023-07-02T21:40:54.165Z,101175.03
2023-07-02T21:51:54.671Z,101159.81
2023-07-02T21:54:54.895Z,101160.09
2023-07-02T21:57:54.735Z,101156.06
2023-07-02T22:03:24.186Z,101152.31
2023-07-02T22:05:56.755Z,101145.56
2023-07-02T22:08:56.582Z,101146.47
2023-07-02T22:14:41.906Z,101145.13
2023-07-02T22:17:56.112Z,101150.16
2023-07-02T22:26:55.423Z,101139.63
2023-07-02T22:35:00.261Z,101125.16
2023-07-02T22:37:31.381Z,101125.63
2023-07-02T22:40:00.157Z,101123.47
2023-07-02T22:42:28.521Z,101121.69
2023-07-02T22:44:59.604Z,101122.72
2023-07-02T22:47:33.397Z,101119.53
2023-07-02T22:50:02.372Z,101115.75
2023-07-02T22:52:31.063Z,101121.69
2023-07-02T22:54:59.911Z,101119.16
2023-07-02T22:57:33.979Z,101115.31
2023-07-02T23:00:03.539Z,101112.78
2023-07-02T23:02:31.936Z,101115.88
2023-07-02T23:05:00.614Z,101107.91
2023-07-02T23:07:32.097Z,101104.06
2023-07-02T23:10:01.350Z,101098.31
2023-07-02T23:12:33.018Z,101092.44
2023-07-02T23:15:01.436Z,101099.06
2023-07-02T23:17:32.759Z,101097.00
2023-07-02T23:20:02.335Z,101101.34
2023-07-02T23:22:30.677Z,101092.06
2023-07-02T23:25:02.341Z,101089.78
2023-07-02T23:27:40.609Z,101087.59
2023-07-02T23:30:37.245Z,101084.53
2023-07-02T23:33:31.832Z,101088.94
2023-07-02T23:36:03.163Z,101088.59
2023-07-02T23:38:35.159Z,101090.56
2023-07-02T23:41:03.735Z,101076.03
2023-07-02T23:43:35.321Z,101079.03
2023-07-02T23:46:03.613Z,101076.16
2023-07-02T23:48:34.902Z,101078.22
2023-07-02T23:51:03.455Z,101073.06
2023-07-02T23:53:34.800Z,101073.06
2023-07-02T23:56:04.067Z,101067.16
2023-07-02T23:58:35.565Z,101062.28
